Time;durP1;ratioP1;P1;durP2;ratioP2;P2;SDS_P1;SDS_P2;PMS_P1;PMS_P2;Temp;Humidity;BMP_temperature;BMP_pressure;BME280_temperature;BME280_humidity;BME280_pressure;Samples;Min_cycle;Max_cycle;Signal;HPM_P1;HPM_P2
2023/10/07 00:00:15;;;;;;;21.75;2.97;;;17.60;99.90;;;;;;4214415;28;20039;-80
2023/10/07 00:02:16;;;;;;;12.73;2.80;;;17.60;99.90;;;;;;4214699;28;20069;-80
2023/10/07 00:04:17;;;;;;;15.80;3.00;;;17.60;99.90;;;;;;4214841;28;20093;-80
2023/10/07 00:06:19;;;;;;;18.30;3.05;;;17.60;99.90;;;;;;4214620;28;20040;-80
2023/10/07 00:08:20;;;;;;;14.25;2.90;;;17.70;99.90;;;;;;4214423;28;20043;-80
2023/10/07 00:10:25;;;;;;;10.80;2.78;;;17.60;99.90;;;;;;4229691;28;20035;-80
2023/10/07 00:12:26;;;;;;;16.13;2.78;;;17.60;99.90;;;;;;4231235;28;20050;-80
2023/10/07 00:14:28;;;;;;;9.50;2.22;;;17.60;99.90;;;;;;4231608;28;20476;-80
2023/10/07 00:16:30;;;;;;;14.52;3.15;;;17.60;99.90;;;;;;4231191;28;20044;-80
2023/10/07 00:18:30;;;;;;;10.43;2.97;;;17.70;99.90;;;;;;4231368;28;20389;-80
2023/10/07 00:20:33;;;;;;;19.02;3.35;;;17.70;99.90;;;;;;4231329;28;20039;-80
2023/10/07 00:22:40;;;;;;;18.45;3.13;;;17.70;99.90;;;;;;4231373;28;20043;-80
2023/10/07 00:24:45;;;;;;;9.45;2.20;;;17.70;99.90;;;;;;4229351;28;20073;-80
2023/10/07 00:26:49;;;;;;;9.88;2.03;;;17.70;99.90;;;;;;4207305;28;20086;-80
2023/10/07 00:29:04;;;;;;;12.75;2.78;;;17.70;99.90;;;;;;4214446;28;20054;-80
2023/10/07 00:31:15;;;;;;;13.13;2.35;;;17.70;99.90;;;;;;4214305;28;20479;-80
2023/10/07 00:33:21;;;;;;;10.55;2.67;;;17.60;99.90;;;;;;4214376;28;20048;-80
2023/10/07 00:35:23;;;;;;;10.57;3.40;;;17.70;99.90;;;;;;4212696;28;20040;-80
2023/10/07 00:37:25;;;;;;;8.57;3.13;;;17.70;99.90;;;;;;4213617;28;20119;-81
2023/10/07 00:39:31;;;;;;;13.00;2.47;;;17.60;99.90;;;;;;4214064;28;20048;-80
2023/10/07 00:41:39;;;;;;;13.75;2.67;;;17.60;99.90;;;;;;4229649;28;20055;-80
2023/10/07 00:43:42;;;;;;;15.05;3.47;;;17.60;99.90;;;;;;4214376;28;20052;-81
2023/10/07 00:45:44;;;;;;;12.27;4.15;;;17.60;99.90;;;;;;4219174;28;20122;-80
2023/10/07 00:47:49;;;;;;;12.07;3.03;;;17.50;99.90;;;;;;4230765;28;20044;-81
2023/10/07 00:49:53;;;;;;;10.30;2.53;;;17.50;99.90;;;;;;4229313;28;20036;-80
2023/10/07 00:51:56;;;;;;;11.57;2.20;;;17.50;99.90;;;;;;4230827;28;20088;-81
2023/10/07 00:54:07;;;;;;;11.93;3.05;;;17.50;99.90;;;;;;4230762;28;20044;-80
2023/10/07 00:56:10;;;;;;;7.55;2.50;;;17.50;99.90;;;;;;4229855;28;20483;-80
2023/10/07 00:58:26;;;;;;;11.82;2.65;;;17.50;99.90;;;;;;4230657;28;20043;-81
2023/10/07 01:02:30;;;;;;;11.45;2.42;;;17.50;99.90;;;;;;4226931;28;20051;-81
2023/10/07 01:04:40;;;;;;;20.83;2.85;;;17.40;99.90;;;;;;4229431;28;20047;-80
2023/10/07 01:06:45;;;;;;;10.68;2.28;;;17.40;99.90;;;;;;4230723;28;20043;-80
2023/10/07 01:08:56;;;;;;;16.33;3.58;;;17.30;99.90;;;;;;4230924;28;20044;-80
2023/10/07 01:11:19;;;;;;;15.38;3.05;;;17.30;99.90;;;;;;4229151;28;20048;-80
2023/10/07 01:13:29;;;;;;;11.48;3.33;;;17.20;99.90;;;;;;4234367;28;20069;-80
2023/10/07 01:15:31;;;;;;;10.50;2.40;;;17.20;99.90;;;;;;4233121;28;20051;-80
2023/10/07 01:17:32;;;;;;;13.95;2.88;;;17.20;99.90;;;;;;4228492;27;20043;-80
2023/10/07 01:19:43;;;;;;;12.35;3.10;;;17.10;99.90;;;;;;4226834;28;20068;-81
2023/10/07 01:21:55;;;;;;;12.70;2.65;;;17.10;99.90;;;;;;4216244;28;20451;-80
2023/10/07 01:23:55;;;;;;;9.27;2.70;;;17.10;99.90;;;;;;4215924;28;20043;-80
2023/10/07 01:25:59;;;;;;;9.75;3.03;;;17.00;99.90;;;;;;4216304;28;20044;-80
2023/10/07 01:28:01;;;;;;;12.93;3.00;;;17.10;99.90;;;;;;4217285;28;20091;-80
2023/10/07 01:30:07;;;;;;;12.73;2.78;;;17.10;99.90;;;;;;4217189;28;20044;-80
2023/10/07 01:32:15;;;;;;;13.93;2.83;;;17.10;99.90;;;;;;4217221;28;20047;-80
2023/10/07 01:34:16;;;;;;;11.25;2.10;;;17.10;99.90;;;;;;4217005;28;20047;-80
2023/10/07 01:36:24;;;;;;;10.07;2.70;;;17.10;99.90;;;;;;4216644;28;20117;-81
2023/10/07 01:38:25;;;;;;;13.80;2.92;;;17.10;99.90;;;;;;4232857;28;20069;-80
2023/10/07 01:40:44;;;;;;;11.75;2.28;;;17.10;99.90;;;;;;4225917;28;20028;-81
2023/10/07 01:42:45;;;;;;;;;;;17.10;99.90;;;;;;4217542;28;20090;-81
2023/10/07 01:44:48;;;;;;;18.88;2.78;;;17.20;99.90;;;;;;4217090;28;19920;-81
2023/10/07 01:46:55;;;;;;;13.43;2.28;;;17.20;99.90;;;;;;4215816;28;20105;-81
2023/10/07 01:48:58;;;;;;;13.93;3.00;;;17.20;99.90;;;;;;4216990;28;20055;-80
2023/10/07 01:51:01;;;;;;;10.65;2.85;;;17.20;99.90;;;;;;4227765;28;20407;-81
2023/10/07 01:53:03;;;;;;;13.40;2.97;;;17.20;99.90;;;;;;4233530;28;20635;-80
2023/10/07 01:55:08;;;;;;;12.57;2.72;;;17.20;99.90;;;;;;4241656;27;20050;-81
2023/10/07 01:57:09;;;;;;;13.70;2.83;;;17.20;99.90;;;;;;4250516;27;20043;-81
2023/10/07 01:59:19;;;;;;;13.77;2.25;;;17.20;99.90;;;;;;4250701;27;20054;-81
2023/10/07 02:01:21;;;;;;;11.32;3.05;;;17.30;99.90;;;;;;4250354;27;20039;-80
2023/10/07 02:03:25;;;;;;;15.88;3.88;;;17.30;99.90;;;;;;4250417;27;20054;-80
2023/10/07 02:05:28;;;;;;;14.23;2.58;;;17.30;99.90;;;;;;4250559;27;20043;-80
2023/10/07 02:07:29;;;;;;;18.00;3.35;;;17.30;99.90;;;;;;4250125;27;20043;-80
2023/10/07 02:09:36;;;;;;;12.00;2.38;;;17.30;99.90;;;;;;4250491;27;20147;-80
2023/10/07 02:11:37;;;;;;;8.15;2.40;;;17.30;99.90;;;;;;4250361;27;20043;-80
2023/10/07 02:13:40;;;;;;;12.77;2.80;;;17.40;99.90;;;;;;4243937;27;20432;-81
2023/10/07 02:15:42;;;;;;;9.32;1.52;;;17.40;99.90;;;;;;4237261;27;20121;-80
2023/10/07 02:17:47;;;;;;;9.88;2.38;;;17.40;99.90;;;;;;4233386;28;20058;-81
2023/10/07 02:19:47;;;;;;;10.68;2.33;;;17.20;99.90;;;;;;4214820;28;20055;-80
2023/10/07 02:21:48;;;;;;;12.10;2.75;;;17.40;99.90;;;;;;4233267;28;20039;-80
2023/10/07 02:23:49;;;;;;;10.30;2.42;;;17.40;99.90;;;;;;4232469;28;20039;-80
2023/10/07 02:25:50;;;;;;;12.82;2.03;;;17.50;99.90;;;;;;4232952;28;20047;-80
2023/10/07 02:27:51;;;;;;;14.68;2.80;;;17.50;99.90;;;;;;4214812;28;20504;-80
2023/10/07 02:29:53;;;;;;;11.68;2.97;;;17.50;99.90;;;;;;4232786;28;20040;-80
2023/10/07 02:32:06;;;;;;;18.42;2.78;;;17.50;99.90;;;;;;4232799;28;20407;-80
2023/10/07 02:34:08;;;;;;;8.68;2.42;;;17.50;99.90;;;;;;4218064;28;20105;-80
2023/10/07 02:36:37;;;;;;;14.80;2.20;;;17.60;99.90;;;;;;4250006;27;20035;-80
2023/10/07 02:38:41;;;;;;;10.65;1.88;;;17.60;99.90;;;;;;4248982;27;20491;-80
2023/10/07 02:40:52;;;;;;;9.07;2.42;;;17.40;99.90;;;;;;4249662;27;20047;-80
2023/10/07 02:42:54;;;;;;;14.50;2.97;;;17.60;99.90;;;;;;4230778;28;20055;-80
2023/10/07 02:45:11;;;;;;;9.05;2.65;;;17.60;99.90;;;;;;4231374;28;20047;-80
2023/10/07 02:47:11;;;;;;;7.35;1.98;;;17.60;99.90;;;;;;4229512;28;20063;-81
2023/10/07 02:49:14;;;;;;;9.60;2.05;;;17.60;99.90;;;;;;4249802;27;20043;-80
2023/10/07 02:51:18;;;;;;;22.52;4.03;;;17.60;99.90;;;;;;4249259;27;20058;-81
2023/10/07 02:53:19;;;;;;;15.23;2.88;;;17.60;99.90;;;;;;4249882;27;20070;-80
2023/10/07 02:57:34;;;;;;;10.10;1.98;;;17.60;99.90;;;;;;4249765;27;20043;-80
2023/10/07 02:59:41;;;;;;;19.30;3.05;;;17.60;99.90;;;;;;4249781;27;20376;-81
2023/10/07 03:01:58;;;;;;;12.27;2.47;;;17.60;99.90;;;;;;4231014;28;20051;-81
2023/10/07 03:04:00;;;;;;;17.08;2.70;;;17.60;99.90;;;;;;4235925;27;20050;-81
2023/10/07 03:06:07;;;;;;;12.50;2.95;;;17.60;99.90;;;;;;4232039;28;20043;-80
2023/10/07 03:08:17;;;;;;;13.57;2.35;;;17.60;99.90;;;;;;4232286;28;20122;-81
2023/10/07 03:10:18;;;;;;;13.50;2.75;;;17.60;99.90;;;;;;4232027;27;20051;-81
2023/10/07 03:12:27;;;;;;;10.23;2.05;;;17.60;99.90;;;;;;4246460;27;20043;-81
2023/10/07 03:14:28;;;;;;;16.13;3.13;;;17.60;99.90;;;;;;4249507;27;20521;-81
2023/10/07 03:16:29;;;;;;;13.10;2.60;;;17.60;99.90;;;;;;4248575;27;20035;-81
2023/10/07 03:18:30;;;;;;;10.23;2.13;;;17.60;99.90;;;;;;4214503;28;20052;-80
2023/10/07 03:20:31;;;;;;;10.18;2.08;;;17.60;99.90;;;;;;4232611;28;20523;-80
2023/10/07 03:22:42;;;;;;;13.35;3.78;;;17.60;99.90;;;;;;4236734;27;20071;-81
2023/10/07 03:24:48;;;;;;;14.30;2.42;;;17.60;99.90;;;;;;4231185;28;20523;-80
2023/10/07 03:26:53;;;;;;;10.00;2.42;;;17.60;99.90;;;;;;4232061;28;20044;-80
2023/10/07 03:28:55;;;;;;;10.55;1.98;;;17.60;99.90;;;;;;4232294;28;20075;-80
2023/10/07 03:30:56;;;;;;;12.48;2.65;;;17.60;99.90;;;;;;4231992;28;20100;-80
2023/10/07 03:32:58;;;;;;;16.08;2.22;;;17.60;99.90;;;;;;4232263;28;20040;-81
2023/10/07 03:35:00;;;;;;;16.98;3.42;;;17.60;99.90;;;;;;4231341;28;20127;-81
2023/10/07 03:41:17;;;;;;;8.68;2.35;;;17.60;99.90;;;;;;4232361;27;20502;-80
2023/10/07 03:43:19;;;;;;;12.52;3.05;;;17.60;99.90;;;;;;4232424;28;20095;-80
2023/10/07 03:45:20;;;;;;;24.40;3.22;;;17.60;99.90;;;;;;4231884;28;20083;-80
2023/10/07 03:47:21;;;;;;;12.73;2.90;;;17.60;99.90;;;;;;4231561;28;20036;-81
2023/10/07 03:49:23;;;;;;;17.25;2.97;;;17.60;99.90;;;;;;4213151;28;20160;-81
2023/10/07 03:51:30;;;;;;;13.70;2.33;;;17.60;99.90;;;;;;4231312;28;20511;-81
2023/10/07 03:54:00;;;;;;;25.60;2.60;;;17.60;99.90;;;;;;4231799;28;20426;-80
2023/10/07 03:55:56;;;;;;;17.30;3.05;;;17.60;99.90;;;;;;4231494;27;20415;-81
2023/10/07 03:57:57;;;;;;;11.10;2.05;;;17.60;99.90;;;;;;4241586;27;20079;-80
2023/10/07 03:59:58;;;;;;;9.68;1.90;;;17.60;99.90;;;;;;4213219;28;20048;-81
2023/10/07 04:01:59;;;;;;;14.00;2.30;;;17.60;99.90;;;;;;4231588;28;20043;-81
2023/10/07 04:03:59;;;;;;;14.45;3.30;;;17.60;99.90;;;;;;4231529;28;20086;-81
2023/10/07 04:06:01;;;;;;;9.70;1.88;;;17.60;99.90;;;;;;4231539;28;20079;-81
2023/10/07 04:08:02;;;;;;;10.20;2.22;;;17.60;99.90;;;;;;4231642;28;20445;-81
2023/10/07 04:10:15;;;;;;;11.43;2.42;;;17.60;99.90;;;;;;4230984;28;20483;-81
2023/10/07 04:12:16;;;;;;;8.77;2.25;;;17.60;99.90;;;;;;4231472;28;20044;-81
2023/10/07 04:14:27;;;;;;;14.15;2.45;;;17.60;99.90;;;;;;4231101;28;20054;-81
2023/10/07 04:16:29;;;;;;;11.93;2.35;;;17.60;99.90;;;;;;4228288;28;20051;-81
2023/10/07 04:18:35;;;;;;;8.18;2.08;;;17.60;99.90;;;;;;4248495;27;20445;-81
2023/10/07 04:22:57;;;;;;;11.48;2.25;;;17.60;99.90;;;;;;4230053;28;20047;-81
2023/10/07 04:25:07;;;;;;;11.73;2.10;;;17.40;99.90;;;;;;4229871;28;20084;-81
2023/10/07 04:27:08;;;;;;;13.05;3.22;;;17.60;99.90;;;;;;4248229;27;20131;-81
2023/10/07 04:29:14;;;;;;;11.70;2.58;;;17.60;99.90;;;;;;4248318;27;20043;-81
2023/10/07 04:31:29;;;;;;;13.40;2.17;;;17.60;99.90;;;;;;4223427;28;20040;-81
2023/10/07 04:33:32;;;;;;;19.05;2.70;;;17.60;99.90;;;;;;4240657;27;20066;-81
2023/10/07 04:35:34;;;;;;;11.10;2.83;;;17.60;99.90;;;;;;4231167;28;20039;-81
2023/10/07 04:37:54;;;;;;;14.40;2.42;;;17.60;99.90;;;;;;4231162;28;20123;-81
2023/10/07 04:42:20;;;;;;;11.15;2.05;;;17.60;99.90;;;;;;4230954;28;20128;-81
2023/10/07 04:44:27;;;;;;;10.10;2.50;;;17.50;99.90;;;;;;4236750;27;20495;-81
2023/10/07 04:46:42;;;;;;;14.82;3.08;;;17.50;99.90;;;;;;4246105;27;20047;-81
2023/10/07 04:48:54;;;;;;;13.10;2.47;;;17.50;99.90;;;;;;4242061;27;20518;-81
2023/10/07 04:51:04;;;;;;;11.52;2.40;;;17.50;99.90;;;;;;4230349;28;20496;-81
2023/10/07 04:53:05;;;;;;;10.70;2.42;;;17.60;99.90;;;;;;4231175;28;20086;-81
2023/10/07 04:55:11;;;;;;;7.03;2.13;;;17.50;99.90;;;;;;4212819;28;20048;-81
2023/10/07 04:57:17;;;;;;;16.92;2.50;;;17.50;99.90;;;;;;4212758;28;20492;-81
2023/10/07 04:59:17;;;;;;;12.27;2.70;;;17.50;99.90;;;;;;4231034;28;20052;-82
2023/10/07 05:01:30;;;;;;;19.02;3.35;;;17.50;99.90;;;;;;4234341;28;20115;-81
2023/10/07 05:03:31;;;;;;;17.35;3.13;;;17.50;99.90;;;;;;4230721;28;20051;-81
2023/10/07 05:05:35;;;;;;;9.23;2.20;;;17.50;99.90;;;;;;4230710;28;20052;-81
2023/10/07 05:07:38;;;;;;;9.20;2.83;;;17.50;99.90;;;;;;4230654;28;20122;-81
2023/10/07 05:09:39;;;;;;;14.73;3.50;;;17.50;99.90;;;;;;4230581;28;20047;-81
2023/10/07 05:11:42;;;;;;;16.42;2.78;;;17.60;99.90;;;;;;4230708;28;20224;-81
2023/10/07 05:13:45;;;;;;;14.07;2.08;;;17.50;99.90;;;;;;4231249;28;20360;-81
2023/10/07 05:15:46;;;;;;;10.85;2.67;;;17.60;99.90;;;;;;4212717;28;20126;-81
2023/10/07 05:17:47;;;;;;;11.93;3.45;;;17.60;99.90;;;;;;4230785;28;20531;-81
2023/10/07 05:19:47;;;;;;;13.15;2.20;;;17.50;99.90;;;;;;4233500;28;20088;-81
2023/10/07 05:22:36;;;;;;;14.00;2.33;;;17.60;99.90;;;;;;4230872;28;20391;-81
2023/10/07 05:24:17;;;;;;;11.07;2.30;;;17.60;99.90;;;;;;4221984;28;20044;-81
2023/10/07 05:26:18;;;;;;;8.15;2.60;;;17.60;99.90;;;;;;4230739;28;20122;-81
2023/10/07 05:28:22;;;;;;;10.82;2.30;;;17.60;99.90;;;;;;4212325;28;20067;-81
2023/10/07 05:30:23;;;;;;;9.07;2.65;;;17.30;99.90;;;;;;4230848;28;20035;-81
2023/10/07 05:32:25;;;;;;;12.23;2.22;;;17.60;99.90;;;;;;4230830;28;20048;-81
2023/10/07 05:34:29;;;;;;;16.45;2.65;;;17.60;99.90;;;;;;4230899;28;20492;-81
2023/10/07 05:36:30;;;;;;;12.30;2.03;;;17.60;99.90;;;;;;4234889;28;20146;-81
2023/10/07 05:38:33;;;;;;;11.68;2.08;;;17.60;99.90;;;;;;4243014;28;20411;-81
2023/10/07 05:40:33;;;;;;;19.50;2.67;;;17.60;99.90;;;;;;4247340;28;20537;-81
2023/10/07 05:42:35;;;;;;;17.88;3.33;;;17.60;99.90;;;;;;4229555;28;20051;-80
2023/10/07 05:44:37;;;;;;;12.85;2.25;;;17.60;99.90;;;;;;4247641;28;20427;-80
2023/10/07 05:46:38;;;;;;;12.25;2.42;;;17.60;99.90;;;;;;4241595;28;20070;-80
2023/10/07 05:48:40;;;;;;;10.85;2.85;;;17.60;99.90;;;;;;4241655;28;20084;-80
2023/10/07 05:50:40;;;;;;;9.95;2.63;;;17.60;99.90;;;;;;4228846;28;20043;-81
2023/10/07 05:52:43;;;;;;;13.70;2.25;;;17.60;99.90;;;;;;4247368;28;20074;-80
2023/10/07 05:54:44;;;;;;;14.70;2.28;;;17.60;99.90;;;;;;4247137;28;20106;-81
2023/10/07 05:56:47;;;;;;;8.57;2.42;;;17.50;99.90;;;;;;4247513;27;20039;-81
2023/10/07 05:58:48;;;;;;;27.63;5.25;;;17.50;99.90;;;;;;4249858;27;20447;-81
2023/10/07 06:00:49;;;;;;;10.82;1.98;;;17.50;99.90;;;;;;4232317;28;20048;-80
2023/10/07 06:02:52;;;;;;;8.82;2.05;;;17.50;99.90;;;;;;4250432;27;20463;-80
2023/10/07 06:04:53;;;;;;;10.90;2.20;;;17.50;99.90;;;;;;4244723;27;20134;-80
2023/10/07 06:06:54;;;;;;;15.38;2.53;;;17.40;99.90;;;;;;4250297;27;20074;-81
2023/10/07 06:08:55;;;;;;;13.68;2.78;;;17.40;99.90;;;;;;4250531;27;20377;-81
2023/10/07 06:10:57;;;;;;;11.57;2.55;;;17.40;99.90;;;;;;4250588;27;20391;-80
2023/10/07 06:12:58;;;;;;;6.65;2.20;;;17.30;99.90;;;;;;4250826;27;20380;-80
2023/10/07 06:14:59;;;;;;;11.93;2.55;;;17.30;99.90;;;;;;4250583;27;20123;-81
2023/10/07 06:17:00;;;;;;;8.43;2.13;;;17.30;99.90;;;;;;4250334;27;20042;-80
2023/10/07 06:19:06;;;;;;;12.43;3.28;;;17.20;99.90;;;;;;4250352;27;20391;-80
2023/10/07 06:23:28;;;;;;;8.10;1.88;;;17.20;99.90;;;;;;4250467;27;20058;-81
2023/10/07 06:25:33;;;;;;;11.80;2.88;;;17.20;99.90;;;;;;4250033;27;20039;-80
2023/10/07 06:27:37;;;;;;;19.00;3.25;;;17.20;99.90;;;;;;4250968;27;20041;-80
2023/10/07 06:29:43;;;;;;;12.32;2.17;;;17.10;99.90;;;;;;4233509;28;20051;-80
2023/10/07 06:32:12;;;;;;;14.18;3.38;;;17.20;99.90;;;;;;4250549;27;20031;-80
2023/10/07 06:34:14;;;;;;;15.07;2.25;;;17.10;99.90;;;;;;4249418;27;20043;-80
2023/10/07 06:36:15;;;;;;;10.70;1.70;;;17.10;99.90;;;;;;4250076;27;20042;-80
2023/10/07 06:38:19;;;;;;;10.98;2.65;;;17.10;99.90;;;;;;4249186;27;20039;-81
2023/10/07 06:42:24;;;;;;;13.35;3.08;;;17.20;99.90;;;;;;4233130;28;20177;-81
2023/10/07 06:44:25;;;;;;;7.97;2.90;;;17.10;99.90;;;;;;4232669;28;20050;-81
2023/10/07 06:46:29;;;;;;;7.70;1.73;;;17.10;99.90;;;;;;4214944;28;20056;-80
2023/10/07 06:48:30;;;;;;;15.88;2.30;;;17.20;99.90;;;;;;4214358;28;20976;-80
2023/10/07 06:50:32;;;;;;;14.07;2.28;;;17.10;99.90;;;;;;4232460;28;20491;-80
2023/10/07 06:52:33;;;;;;;15.93;2.97;;;17.20;99.90;;;;;;4214588;28;20044;-80
2023/10/07 06:54:34;;;;;;;14.63;2.60;;;17.10;99.90;;;;;;4232938;28;20145;-80
2023/10/07 06:56:35;;;;;;;12.27;2.00;;;17.20;99.90;;;;;;4214765;28;20079;-80
2023/10/07 06:58:35;;;;;;;6.90;2.42;;;17.10;99.90;;;;;;4232139;28;20049;-80
2023/10/07 07:00:49;;;;;;;8.88;1.50;;;17.20;99.90;;;;;;4232680;27;20031;-80
2023/10/07 07:02:54;;;;;;;10.20;2.60;;;17.10;99.90;;;;;;4232987;28;20135;-80
2023/10/07 07:04:55;;;;;;;7.55;2.30;;;17.20;99.90;;;;;;4215317;28;20476;-80
2023/10/07 07:07:10;;;;;;;14.68;2.15;;;17.20;99.90;;;;;;4232585;28;20172;-81
2023/10/07 07:11:34;;;;;;;12.73;2.83;;;17.20;99.90;;;;;;4214046;28;20368;-80
2023/10/07 07:13:35;;;;;;;14.00;2.20;;;17.30;99.90;;;;;;4231095;28;20035;-80
2023/10/07 07:15:36;;;;;;;9.77;2.67;;;17.30;99.90;;;;;;4232382;28;20404;-80
2023/10/07 07:17:37;;;;;;;14.70;3.72;;;17.30;99.90;;;;;;4231939;27;20043;-80
2023/10/07 07:19:38;;;;;;;5.50;1.60;;;17.30;99.90;;;;;;4246899;27;20118;-80
2023/10/07 07:21:41;;;;;;;8.02;2.13;;;17.30;99.90;;;;;;4248895;27;20087;-80
2023/10/07 07:23:49;;;;;;;10.48;2.65;;;17.30;99.90;;;;;;4230891;28;20050;-80
2023/10/07 07:26:09;;;;;;;7.43;2.05;;;17.30;99.90;;;;;;4230728;28;20082;-80
2023/10/07 07:28:10;;;;;;;11.90;2.83;;;17.30;99.90;;;;;;4249372;27;20047;-80
2023/10/07 07:30:19;;;;;;;9.65;1.90;;;17.50;99.90;;;;;;4249183;27;20463;-81
2023/10/07 07:32:21;;;;;;;7.65;2.65;;;17.30;99.90;;;;;;4230257;28;20519;-80
2023/10/07 07:34:26;;;;;;;7.05;1.90;;;17.40;99.90;;;;;;4244957;27;20048;-81
2023/10/07 07:36:42;;;;;;;7.57;1.77;;;17.40;99.90;;;;;;4241785;27;20035;-81
2023/10/07 07:38:46;;;;;;;9.93;2.20;;;17.40;99.90;;;;;;4232059;28;20043;-80
2023/10/07 07:40:49;;;;;;;7.90;2.05;;;17.50;99.90;;;;;;4232060;28;20043;-81
2023/10/07 07:42:55;;;;;;;10.90;2.05;;;17.50;99.90;;;;;;4213945;28;20083;-80
2023/10/07 07:44:56;;;;;;;11.00;2.40;;;17.50;99.90;;;;;;4231306;28;20044;-81
2023/10/07 07:46:57;;;;;;;10.75;1.95;;;17.50;99.90;;;;;;4242286;27;20043;-81
2023/10/07 07:49:06;;;;;;;10.05;2.47;;;17.50;99.90;;;;;;4248802;27;20050;-81
2023/10/07 07:51:07;;;;;;;15.10;3.65;;;17.60;99.90;;;;;;4228356;28;20056;-80
2023/10/07 07:53:09;;;;;;;10.50;2.60;;;17.60;99.90;;;;;;4249024;27;20086;-80
2023/10/07 07:55:14;;;;;;;10.10;1.90;;;17.60;99.90;;;;;;4249075;27;20060;-81
2023/10/07 07:57:17;;;;;;;10.15;1.90;;;17.60;99.90;;;;;;4237777;28;20039;-80
2023/10/07 07:59:18;;;;;;;13.18;2.20;;;17.70;99.90;;;;;;4264943;27;20051;-81
2023/10/07 08:01:28;;;;;;;12.57;1.90;;;17.70;99.90;;;;;;4252447;27;20452;-81
2023/10/07 08:03:29;;;;;;;8.93;2.22;;;17.80;99.90;;;;;;4248606;27;20046;-81
2023/10/07 08:05:34;;;;;;;8.90;2.00;;;17.90;99.90;;;;;;4248428;27;20043;-81
2023/10/07 08:07:34;;;;;;;10.38;2.40;;;17.90;99.90;;;;;;4210926;28;20451;-81
2023/10/07 08:09:37;;;;;;;7.45;2.10;;;17.90;99.90;;;;;;4231141;28;20075;-81
2023/10/07 08:11:38;;;;;;;10.93;2.28;;;18.00;99.90;;;;;;4230059;28;20051;-81
2023/10/07 08:13:38;;;;;;;8.63;3.55;;;18.00;99.90;;;;;;4231198;28;20042;-81
2023/10/07 08:15:41;;;;;;;8.30;2.20;;;18.00;99.90;;;;;;4197328;28;20508;-81
2023/10/07 08:17:45;;;;;;;7.55;2.05;;;17.80;99.90;;;;;;4231180;28;20039;-81
2023/10/07 08:19:50;;;;;;;17.60;2.20;;;18.00;99.90;;;;;;4231254;28;20047;-81
2023/10/07 08:21:51;;;;;;;10.48;1.88;;;18.10;99.90;;;;;;4230832;28;20453;-81
2023/10/07 08:23:52;;;;;;;7.95;2.40;;;18.10;99.90;;;;;;4230809;28;20039;-80
2023/10/07 08:26:06;;;;;;;10.30;1.92;;;18.10;99.90;;;;;;4231112;28;20082;-81
2023/10/07 08:28:19;;;;;;;8.45;1.88;;;18.10;99.90;;;;;;4231087;28;20071;-81
2023/10/07 08:30:37;;;;;;;6.32;2.67;;;18.10;99.90;;;;;;4230964;28;20043;-81
2023/10/07 08:32:39;;;;;;;8.23;2.50;;;18.10;99.90;;;;;;4238667;27;20042;-82
2023/10/07 08:34:40;;;;;;;10.50;2.42;;;18.10;99.90;;;;;;4243788;27;20066;-82
2023/10/07 08:36:47;;;;;;;9.57;1.90;;;18.10;99.90;;;;;;4245504;27;20483;-81
2023/10/07 08:38:50;;;;;;;13.10;2.88;;;18.10;99.90;;;;;;4230444;28;20134;-81
2023/10/07 08:41:04;;;;;;;15.95;2.75;;;18.10;99.90;;;;;;4229673;28;20503;-81
2023/10/07 08:43:08;;;;;;;9.98;1.98;;;18.10;99.90;;;;;;4229925;28;20050;-81
2023/10/07 08:45:14;;;;;;;16.38;3.42;;;18.10;99.90;;;;;;4247941;27;20069;-82
2023/10/07 08:47:15;;;;;;;12.68;2.80;;;18.20;99.90;;;;;;4248301;27;20035;-80
2023/10/07 08:49:17;;;;;;;10.27;2.40;;;18.20;99.90;;;;;;4229868;28;20051;-80
2023/10/07 08:51:21;;;;;;;8.45;2.10;;;18.30;99.90;;;;;;4241977;27;20485;-81
2023/10/07 08:53:23;;;;;;;14.68;3.08;;;18.30;99.90;;;;;;4249247;28;20050;-81
2023/10/07 08:55:25;;;;;;;11.15;1.83;;;18.40;99.90;;;;;;4248021;28;20053;-80
2023/10/07 08:57:26;;;;;;;12.57;2.53;;;18.30;99.90;;;;;;4248334;28;20043;-81
2023/10/07 08:59:30;;;;;;;11.38;2.53;;;18.30;99.90;;;;;;4249549;28;20057;-81
2023/10/07 09:01:32;;;;;;;11.50;3.67;;;18.30;99.90;;;;;;4248646;28;20061;-81
2023/10/07 09:03:39;;;;;;;12.80;2.03;;;18.30;99.90;;;;;;4248461;28;20047;-81
2023/10/07 09:05:45;;;;;;;8.98;2.50;;;18.30;99.90;;;;;;4249010;28;20407;-81
2023/10/07 09:07:48;;;;;;;7.93;2.08;;;18.30;99.90;;;;;;4248185;28;20039;-81
2023/10/07 09:09:49;;;;;;;12.45;2.28;;;18.30;99.90;;;;;;4236628;28;20051;-80
2023/10/07 09:11:51;;;;;;;11.55;2.40;;;18.30;99.90;;;;;;4246854;28;20031;-80
2023/10/07 09:13:55;;;;;;;11.07;2.35;;;18.30;99.90;;;;;;4202380;28;20131;-82
2023/10/07 09:15:59;;;;;;;13.98;2.80;;;18.30;99.90;;;;;;4231415;28;20040;-82
2023/10/07 09:18:03;;;;;;;8.50;2.53;;;18.30;99.90;;;;;;4230727;28;20128;-82
2023/10/07 09:20:13;;;;;;;14.00;2.90;;;18.30;99.90;;;;;;4213078;28;20523;-81
2023/10/07 09:22:18;;;;;;;12.02;2.47;;;18.40;99.90;;;;;;4230783;28;20047;-82
2023/10/07 09:24:24;;;;;;;12.20;2.75;;;18.40;99.90;;;;;;4230771;28;20044;-82
2023/10/07 09:26:33;;;;;;;11.43;2.42;;;18.40;99.90;;;;;;4233119;28;20506;-81
2023/10/07 09:28:38;;;;;;;9.02;2.88;;;18.40;99.90;;;;;;4237881;28;20044;-82
2023/10/07 09:32:44;;;;;;;13.63;3.05;;;18.40;99.90;;;;;;4231459;28;20043;-82
2023/10/07 09:34:45;;;;;;;13.13;3.00;;;18.40;99.90;;;;;;4215669;28;20507;-82
2023/10/07 09:36:46;;;;;;;13.27;2.88;;;18.30;99.90;;;;;;4234121;28;20491;-81
2023/10/07 09:39:06;;;;;;;12.10;2.72;;;18.40;99.90;;;;;;4215791;28;20040;-81
2023/10/07 09:43:33;;;;;;;11.05;2.50;;;18.30;99.90;;;;;;4236851;27;20484;-81
2023/10/07 09:45:37;;;;;;;11.80;2.85;;;18.30;99.90;;;;;;4244699;27;20483;-82
2023/10/07 09:47:40;;;;;;;14.27;2.53;;;18.40;99.90;;;;;;4227223;28;20821;-82
2023/10/07 09:49:41;;;;;;;15.65;2.60;;;18.30;99.90;;;;;;4244522;27;20106;-82
2023/10/07 09:51:47;;;;;;;17.38;3.08;;;18.80;99.90;;;;;;4227719;28;20134;-82
2023/10/07 09:54:10;;;;;;;16.88;2.88;;;18.30;99.90;;;;;;4242947;27;20143;-82
2023/10/07 09:56:38;;;;;;;12.50;3.17;;;18.30;99.90;;;;;;4233023;28;20047;-82
2023/10/07 09:58:52;;;;;;;11.30;3.40;;;18.30;99.90;;;;;;4237244;27;20077;-82
2023/10/07 10:01:38;;;;;;;11.35;3.67;;;18.30;99.90;;;;;;4243814;27;20281;-82
2023/10/07 10:04:03;;;;;;;14.00;2.50;;;18.30;99.90;;;;;;4235025;27;20062;-82
2023/10/07 10:06:33;;;;;;;14.18;4.22;;;18.40;99.90;;;;;;4234463;27;20055;-82
2023/10/07 10:08:46;;;;;;;12.23;3.75;;;18.40;99.90;;;;;;4218258;28;20101;-82
2023/10/07 10:10:49;;;;;;;13.57;3.45;;;18.40;99.90;;;;;;4246406;27;20056;-82
2023/10/07 10:15:07;;;;;;;16.55;3.35;;;18.40;99.90;;;;;;4225930;28;20500;-82
2023/10/07 10:17:15;;;;;;;13.80;2.90;;;18.40;99.90;;;;;;4244174;27;20043;-82
2023/10/07 10:19:29;;;;;;;8.27;2.30;;;18.40;99.90;;;;;;4240464;27;20375;-82
2023/10/07 10:21:30;;;;;;;13.82;3.55;;;18.50;99.90;;;;;;4244240;27;20122;-83
2023/10/07 10:23:34;;;;;;;11.40;2.92;;;18.50;99.90;;;;;;4238648;27;20050;-83
2023/10/07 10:25:39;;;;;;;14.65;2.97;;;18.60;99.90;;;;;;4226318;28;20043;-82
2023/10/07 10:27:44;;;;;;;14.30;3.00;;;18.60;99.90;;;;;;4219321;28;20040;-82
2023/10/07 10:29:55;;;;;;;10.15;3.65;;;18.70;99.90;;;;;;4227946;28;20434;-82
2023/10/07 10:31:58;;;;;;;12.73;2.50;;;18.70;99.90;;;;;;4235260;27;20391;-83
2023/10/07 10:34:05;;;;;;;12.55;3.33;;;18.80;99.90;;;;;;4225987;28;20032;-82
2023/10/07 10:36:07;;;;;;;19.35;3.97;;;18.80;99.90;;;;;;4247735;27;20046;-81
2023/10/07 10:38:13;;;;;;;16.02;2.88;;;18.90;99.90;;;;;;4237191;28;20115;-82
2023/10/07 10:40:17;;;;;;;10.05;3.00;;;18.90;99.90;;;;;;4243094;27;20039;-82
2023/10/07 10:42:18;;;;;;;11.40;2.35;;;18.90;99.90;;;;;;4260350;27;20043;-82
2023/10/07 10:44:20;;;;;;;12.20;2.70;;;18.90;99.90;;;;;;4236485;28;20569;-81
2023/10/07 10:46:23;;;;;;;8.77;2.35;;;18.90;99.90;;;;;;4234879;27;20044;-81
2023/10/07 10:48:29;;;;;;;12.85;3.22;;;18.90;99.90;;;;;;4238293;27;20039;-80
2023/10/07 10:50:32;;;;;;;9.07;2.70;;;19.00;99.90;;;;;;4235418;27;20051;-81
2023/10/07 10:52:33;;;;;;;10.85;3.00;;;19.00;99.90;;;;;;4245093;27;20046;-80
2023/10/07 10:54:36;;;;;;;13.30;3.08;;;19.10;99.90;;;;;;4246391;27;20043;-81
2023/10/07 10:56:50;;;;;;;12.23;2.35;;;19.10;99.90;;;;;;4218767;28;20043;-81
2023/10/07 10:58:54;;;;;;;8.57;2.67;;;19.20;99.90;;;;;;4244329;27;20050;-81
2023/10/07 11:00:55;;;;;;;18.88;4.63;;;19.20;99.90;;;;;;4238793;27;20043;-81
2023/10/07 11:02:56;;;;;;;12.98;2.38;;;19.20;99.90;;;;;;4245547;27;20035;-81
2023/10/07 11:04:57;;;;;;;14.90;2.70;;;19.10;99.90;;;;;;4237588;27;20119;-81
2023/10/07 11:07:01;;;;;;;10.45;3.17;;;19.10;99.90;;;;;;4238220;27;20039;-81
2023/10/07 11:09:03;;;;;;;9.82;3.25;;;19.10;99.90;;;;;;4242303;27;20086;-81